createdAt,value
2019-03-17T00:00:32.511Z,81.10
2019-03-17T00:03:00.440Z,81.37
2019-03-17T00:05:28.435Z,85.93
2019-03-17T00:07:56.473Z,82.80
2019-03-17T00:10:24.445Z,81.67
2019-03-17T00:12:52.433Z,82.77
2019-03-17T00:15:20.491Z,82.37
2019-03-17T00:17:48.466Z,81.03
2019-03-17T00:20:16.529Z,81.10
2019-03-17T00:22:44.543Z,82.53
2019-03-17T00:25:12.472Z,80.90
2019-03-17T00:27:40.420Z,82.53
2019-03-17T00:30:08.661Z,82.00
2019-03-17T00:32:36.673Z,82.47
2019-03-17T00:35:04.805Z,81.00
2019-03-17T00:37:32.829Z,81.00
2019-03-17T00:40:00.800Z,80.93
2019-03-17T00:42:28.849Z,87.40
2019-03-17T00:44:56.879Z,86.00
2019-03-17T00:47:24.946Z,79.83
2019-03-17T00:49:53.082Z,81.73
2019-03-17T00:52:21.137Z,82.27
2019-03-17T00:54:49.165Z,83.27
2019-03-17T00:57:17.190Z,85.60
2019-03-17T00:59:45.234Z,80.40
2019-03-17T01:02:13.245Z,80.47
2019-03-17T01:04:41.277Z,81.63
2019-03-17T01:07:09.293Z,80.67
2019-03-17T01:09:37.177Z,82.80
2019-03-17T01:12:05.233Z,80.07
2019-03-17T01:14:33.273Z,81.90
2019-03-17T01:17:01.309Z,83.50
2019-03-17T01:19:29.235Z,80.43
2019-03-17T01:21:57.302Z,78.17
2019-03-17T01:24:25.391Z,80.23
2019-03-17T01:26:53.453Z,81.70
2019-03-17T01:29:21.536Z,80.13
2019-03-17T01:31:49.586Z,82.80
2019-03-17T01:34:17.669Z,82.70
2019-03-17T01:36:45.749Z,79.50
2019-03-17T01:39:13.708Z,82.43
2019-03-17T01:41:41.647Z,79.37
2019-03-17T01:44:09.616Z,80.63
2019-03-17T01:46:37.577Z,81.33
2019-03-17T01:49:06.611Z,78.83
2019-03-17T01:51:34.539Z,88.77
2019-03-17T01:54:02.513Z,84.27
2019-03-17T01:56:30.575Z,81.70
2019-03-17T01:58:58.573Z,84.33
2019-03-17T02:01:26.600Z,85.60
2019-03-17T02:03:54.596Z,85.90
2019-03-17T02:06:22.580Z,79.77
2019-03-17T02:08:50.577Z,82.10
2019-03-17T02:11:18.619Z,79.40
2019-03-17T02:13:46.904Z,83.07
2019-03-17T02:16:14.873Z,84.27
2019-03-17T02:18:42.931Z,82.97
2019-03-17T02:21:10.922Z,79.10
2019-03-17T02:23:38.982Z,82.63
2019-03-17T02:26:07.076Z,82.57
2019-03-17T02:28:35.135Z,81.67
2019-03-17T02:31:03.110Z,84.00
2019-03-17T02:33:31.182Z,78.00
2019-03-17T02:35:59.164Z,81.03
2019-03-17T02:38:27.212Z,83.10
2019-03-17T02:40:55.280Z,80.77
2019-03-17T02:43:23.361Z,80.63
2019-03-17T02:45:51.422Z,82.67
2019-03-17T02:48:19.509Z,85.80
2019-03-17T02:50:47.554Z,85.40
2019-03-17T02:53:15.544Z,82.83
2019-03-17T02:55:43.622Z,86.97
2019-03-17T02:58:11.675Z,81.67
2019-03-17T03:00:39.787Z,83.87
2019-03-17T03:03:07.899Z,80.90
2019-03-17T03:05:35.901Z,80.33
2019-03-17T03:08:04.269Z,85.60
2019-03-17T03:10:32.510Z,81.00
2019-03-17T03:13:00.826Z,77.07
2019-03-17T03:15:28.901Z,78.57
2019-03-17T03:17:56.985Z,79.30
2019-03-17T03:20:25.029Z,78.80
2019-03-17T03:22:53.017Z,92.33
2019-03-17T03:25:21.073Z,82.47
2019-03-17T03:27:49.167Z,87.40
2019-03-17T03:30:17.226Z,81.73
2019-03-17T03:32:45.310Z,81.03
2019-03-17T03:35:13.290Z,78.67
2019-03-17T03:37:41.332Z,85.17
2019-03-17T03:40:09.395Z,80.57
2019-03-17T03:42:37.569Z,82.73
2019-03-17T03:45:05.691Z,79.33
2019-03-17T03:47:33.761Z,81.03
2019-03-17T03:50:01.683Z,81.77
2019-03-17T03:52:29.668Z,84.73
2019-03-17T03:54:57.573Z,79.80
2019-03-17T03:57:25.660Z,77.00
2019-03-17T03:59:53.660Z,82.43
2019-03-17T04:02:21.680Z,82.37
2019-03-17T04:04:49.724Z,82.97
2019-03-17T04:07:17.773Z,82.90
2019-03-17T04:09:45.761Z,79.07
2019-03-17T04:12:13.819Z,80.53
2019-03-17T04:14:41.912Z,80.90
2019-03-17T04:17:09.980Z,79.97
2019-03-17T04:19:38.040Z,78.10
2019-03-17T04:22:06.108Z,77.10
2019-03-17T04:24:34.180Z,79.03
2019-03-17T04:27:02.159Z,83.57
2019-03-17T04:29:30.209Z,78.77
2019-03-17T04:31:58.211Z,76.70
2019-03-17T04:34:26.152Z,79.00
2019-03-17T04:36:54.245Z,78.60
2019-03-17T04:39:22.302Z,81.57
2019-03-17T04:41:50.351Z,81.47
2019-03-17T04:44:21.099Z,75.77
2019-03-17T04:46:48.041Z,76.20
2019-03-17T04:49:16.013Z,76.00
2019-03-17T04:51:43.964Z,78.30
2019-03-17T04:54:12.366Z,76.27
2019-03-17T04:56:40.430Z,76.20
2019-03-17T04:59:08.348Z,77.53
2019-03-17T05:01:36.445Z,83.97
2019-03-17T05:04:04.336Z,80.07
2019-03-17T05:06:32.329Z,81.20
2019-03-17T05:09:00.270Z,78.53
2019-03-17T05:11:28.240Z,76.87
2019-03-17T05:13:56.252Z,81.80
2019-03-17T05:16:24.279Z,81.57
2019-03-17T05:18:52.269Z,79.87
2019-03-17T05:21:20.267Z,79.30
2019-03-17T05:23:48.294Z,80.53
2019-03-17T05:26:16.337Z,80.37
2019-03-17T05:28:44.331Z,77.13
2019-03-17T05:31:12.335Z,79.60
2019-03-17T05:33:40.372Z,71.33
2019-03-17T05:36:08.362Z,76.27
2019-03-17T05:38:36.405Z,80.50
2019-03-17T05:41:04.420Z,78.90
2019-03-17T05:43:32.355Z,76.90
2019-03-17T05:46:00.351Z,75.33
2019-03-17T05:48:28.420Z,78.93
2019-03-17T05:50:56.453Z,75.63
2019-03-17T05:53:24.460Z,77.30
2019-03-17T05:55:52.462Z,78.33
2019-03-17T05:58:20.422Z,79.60
2019-03-17T06:00:48.674Z,75.17
2019-03-17T06:03:16.717Z,75.83
2019-03-17T06:05:44.694Z,75.80
2019-03-17T06:08:13.073Z,77.17
2019-03-17T06:10:41.132Z,81.13
2019-03-17T06:13:09.127Z,77.37
2019-03-17T06:15:37.190Z,78.47
2019-03-17T06:18:05.254Z,81.40
2019-03-17T06:20:33.220Z,84.10
2019-03-17T06:23:01.217Z,78.40
2019-03-17T06:25:29.316Z,75.10
2019-03-17T06:27:57.329Z,77.20
2019-03-17T06:30:25.308Z,83.47
2019-03-17T06:32:53.294Z,74.80
2019-03-17T06:35:21.342Z,77.50
2019-03-17T06:37:49.338Z,75.70
2019-03-17T06:40:17.385Z,77.80
2019-03-17T06:42:45.375Z,76.70
2019-03-17T06:45:13.440Z,77.40
2019-03-17T06:47:41.390Z,81.10
2019-03-17T06:50:09.865Z,78.00
2019-03-17T06:52:37.856Z,76.57
2019-03-17T06:55:06.228Z,82.30
2019-03-17T06:57:34.273Z,78.63
2019-03-17T07:00:02.278Z,84.50
2019-03-17T07:02:30.295Z,82.80
2019-03-17T07:04:58.314Z,83.97
2019-03-17T07:07:26.295Z,83.40
2019-03-17T07:09:54.362Z,81.47
2019-03-17T07:12:22.421Z,79.53
2019-03-17T07:14:50.507Z,82.43
2019-03-17T07:17:19.457Z,84.20
2019-03-17T07:19:47.443Z,80.37
2019-03-17T07:22:15.437Z,84.50
2019-03-17T07:24:43.516Z,80.87
2019-03-17T07:27:11.591Z,80.37
2019-03-17T07:29:39.526Z,77.87
2019-03-17T07:32:07.565Z,84.00
2019-03-17T07:34:35.557Z,79.10
2019-03-17T07:37:03.862Z,78.20
2019-03-17T07:39:31.842Z,81.27
2019-03-17T07:41:59.727Z,77.47
2019-03-17T07:44:27.724Z,79.57
2019-03-17T07:46:56.028Z,78.90
2019-03-17T07:49:24.051Z,77.80
2019-03-17T07:51:51.979Z,78.50
2019-03-17T07:54:20.070Z,76.87
2019-03-17T07:56:48.040Z,79.57
2019-03-17T07:59:16.066Z,81.60
2019-03-17T08:01:44.123Z,77.90
2019-03-17T08:04:12.149Z,78.33
2019-03-17T08:06:40.143Z,79.30
2019-03-17T08:09:08.310Z,76.27
2019-03-17T08:11:36.351Z,76.93
2019-03-17T08:14:04.540Z,76.40
2019-03-17T08:16:32.622Z,80.17
2019-03-17T08:19:01.181Z,79.13
2019-03-17T08:21:29.319Z,77.43
2019-03-17T08:23:57.306Z,75.37
2019-03-17T08:26:25.425Z,76.07
2019-03-17T08:28:53.473Z,75.83
2019-03-17T08:31:21.722Z,76.83
2019-03-17T08:33:49.737Z,77.63
2019-03-17T08:36:17.773Z,76.97
2019-03-17T08:38:45.822Z,76.37
2019-03-17T08:41:13.854Z,79.50
2019-03-17T08:43:53.694Z,80.73
2019-03-17T08:46:11.814Z,77.10
2019-03-17T08:48:39.953Z,76.20
2019-03-17T08:51:07.962Z,81.20
2019-03-17T08:53:36.028Z,78.37
2019-03-17T08:56:04.110Z,79.03
2019-03-17T08:58:32.317Z,80.60
2019-03-17T09:01:00.340Z,78.00
2019-03-17T09:03:28.348Z,77.00
2019-03-17T09:05:56.300Z,78.70
2019-03-17T09:08:34.413Z,78.40
2019-03-17T09:10:54.190Z,80.17
2019-03-17T09:13:22.276Z,74.80
2019-03-17T09:15:50.491Z,76.27
2019-03-17T09:18:18.646Z,77.50
2019-03-17T09:20:46.904Z,77.77
2019-03-17T09:23:15.149Z,76.20
2019-03-17T09:25:43.182Z,72.80
2019-03-17T09:28:11.189Z,74.00
2019-03-17T09:30:39.398Z,78.17
2019-03-17T09:33:07.282Z,76.43
2019-03-17T09:35:35.393Z,76.47
2019-03-17T09:38:03.354Z,75.50
2019-03-17T09:40:31.428Z,74.57
2019-03-17T09:42:59.678Z,76.50
2019-03-17T09:45:27.661Z,75.53
2019-03-17T09:47:55.741Z,74.80
2019-03-17T09:50:23.824Z,73.70
2019-03-17T09:52:51.908Z,73.00
2019-03-17T09:55:19.968Z,73.00
2019-03-17T09:57:47.874Z,73.13
2019-03-17T10:00:15.874Z,72.33
2019-03-17T10:02:43.903Z,71.50
2019-03-17T10:05:11.970Z,73.20
2019-03-17T10:07:39.998Z,73.37
2019-03-17T10:10:08.719Z,73.17
2019-03-17T10:12:36.738Z,72.40
2019-03-17T10:15:05.947Z,72.07
2019-03-17T10:17:34.169Z,74.77
2019-03-17T10:20:02.343Z,73.57
2019-03-17T10:22:30.402Z,73.60
2019-03-17T10:24:58.630Z,73.90
2019-03-17T10:27:26.615Z,75.27
2019-03-17T10:29:54.998Z,73.50
2019-03-17T10:32:23.139Z,73.20
2019-03-17T10:34:51.177Z,75.53
2019-03-17T10:37:19.215Z,72.90
2019-03-17T10:39:47.345Z,78.90
2019-03-17T10:42:15.812Z,72.43
2019-03-17T10:44:43.748Z,73.90
2019-03-17T10:47:11.799Z,73.50
2019-03-17T10:49:39.772Z,76.03
2019-03-17T10:52:07.725Z,74.60
2019-03-17T10:54:35.824Z,73.73
2019-03-17T10:57:03.884Z,74.03
2019-03-17T10:59:31.969Z,74.23
2019-03-17T11:02:00.038Z,74.13
2019-03-17T11:04:28.170Z,81.10
2019-03-17T11:06:56.154Z,80.33
2019-03-17T11:09:25.531Z,75.10
2019-03-17T11:11:53.769Z,75.77
2019-03-17T11:14:21.804Z,76.07
2019-03-17T11:16:49.854Z,75.57
2019-03-17T11:19:17.844Z,76.50
2019-03-17T11:21:45.927Z,73.30
2019-03-17T11:24:13.996Z,78.00
2019-03-17T11:26:41.958Z,74.93
2019-03-17T11:29:09.978Z,74.90
2019-03-17T11:31:37.996Z,75.10
2019-03-17T11:34:06.000Z,76.10
2019-03-17T11:36:34.048Z,75.37
2019-03-17T11:39:02.124Z,73.80
2019-03-17T11:41:30.375Z,74.17
2019-03-17T11:43:58.431Z,76.10
2019-03-17T11:46:26.456Z,71.97
2019-03-17T11:48:54.523Z,72.10
2019-03-17T11:51:22.586Z,71.50
2019-03-17T11:53:50.645Z,73.77
2019-03-17T11:56:18.657Z,76.23
2019-03-17T11:58:46.685Z,73.97
2019-03-17T12:01:14.686Z,74.30
2019-03-17T12:03:42.779Z,74.37
2019-03-17T12:06:11.054Z,70.33
2019-03-17T12:08:39.099Z,69.17
2019-03-17T12:11:07.182Z,72.47
2019-03-17T12:13:35.232Z,71.87
2019-03-17T12:16:03.291Z,71.73
2019-03-17T12:18:31.269Z,69.73
2019-03-17T12:20:59.337Z,71.80
2019-03-17T12:23:27.415Z,73.87
2019-03-17T12:25:55.513Z,74.90
2019-03-17T12:28:23.434Z,73.87
2019-03-17T12:30:51.498Z,70.67
2019-03-17T12:33:19.490Z,71.07
2019-03-17T12:35:47.473Z,69.50
2019-03-17T12:38:15.554Z,74.87
2019-03-17T12:40:43.630Z,73.07
2019-03-17T12:43:11.670Z,69.80
2019-03-17T12:45:39.625Z,72.47
2019-03-17T12:48:07.630Z,73.53
2019-03-17T12:50:35.688Z,71.27
2019-03-17T12:53:03.647Z,71.00
2019-03-17T12:55:31.737Z,70.37
2019-03-17T12:57:59.813Z,71.20
2019-03-17T13:00:28.160Z,71.87
2019-03-17T13:02:56.155Z,75.30
2019-03-17T13:05:24.170Z,72.33
2019-03-17T13:07:52.232Z,70.30
2019-03-17T13:10:20.249Z,71.63
2019-03-17T13:12:48.524Z,70.77
2019-03-17T13:15:16.485Z,73.17
2019-03-17T13:17:44.589Z,69.77
2019-03-17T13:20:13.363Z,70.67
2019-03-17T13:22:41.556Z,69.07
2019-03-17T13:25:09.653Z,69.77
2019-03-17T13:27:37.681Z,70.00
2019-03-17T13:30:06.581Z,69.73
2019-03-17T13:32:34.544Z,71.23
2019-03-17T13:35:02.606Z,69.57
2019-03-17T13:37:30.572Z,73.33
2019-03-17T13:39:58.963Z,69.43
2019-03-17T13:42:26.913Z,71.70
2019-03-17T13:44:54.995Z,69.70
2019-03-17T13:47:23.221Z,71.87
2019-03-17T13:49:51.220Z,71.07
2019-03-17T13:52:19.718Z,72.97
2019-03-17T13:54:47.666Z,74.20
2019-03-17T13:57:16.742Z,73.47
2019-03-17T13:59:44.741Z,70.80
2019-03-17T14:02:12.655Z,76.77
2019-03-17T14:04:40.732Z,73.80
2019-03-17T14:07:08.725Z,71.83
2019-03-17T14:09:37.046Z,69.70
2019-03-17T14:12:05.220Z,73.10
2019-03-17T14:14:33.221Z,72.77
2019-03-17T14:17:01.285Z,73.13
2019-03-17T14:19:29.345Z,70.10
2019-03-17T14:21:57.543Z,69.50
2019-03-17T14:24:25.576Z,70.07
2019-03-17T14:26:53.641Z,70.67
2019-03-17T14:29:21.814Z,73.17
2019-03-17T14:31:49.812Z,69.70
2019-03-17T14:34:18.022Z,70.67
2019-03-17T14:36:46.169Z,69.77
2019-03-17T14:39:14.294Z,74.27
2019-03-17T14:41:42.468Z,73.73
2019-03-17T14:44:10.480Z,69.97
2019-03-17T14:46:38.548Z,70.60
2019-03-17T14:49:06.588Z,68.47
2019-03-17T14:51:34.578Z,70.57
2019-03-17T14:54:02.645Z,70.20
2019-03-17T14:56:30.716Z,71.27
2019-03-17T14:58:58.770Z,72.87
2019-03-17T15:01:26.750Z,70.73
2019-03-17T15:03:54.758Z,71.73
2019-03-17T15:06:23.093Z,72.90
2019-03-17T15:08:51.181Z,71.77
2019-03-17T15:11:19.138Z,75.70
2019-03-17T15:13:47.400Z,71.20
2019-03-17T15:16:15.396Z,69.23
2019-03-17T15:18:43.466Z,73.53
2019-03-17T15:21:11.528Z,72.97
2019-03-17T15:23:39.496Z,72.87
2019-03-17T15:26:07.606Z,72.37
2019-03-17T15:28:35.639Z,73.77
2019-03-17T15:31:11.419Z,69.40
2019-03-17T15:33:34.362Z,69.87
2019-03-17T15:36:02.737Z,72.17
2019-03-17T15:38:30.812Z,73.90
2019-03-17T15:40:58.790Z,70.87
2019-03-17T15:43:26.835Z,69.27
2019-03-17T15:45:54.793Z,70.30
2019-03-17T15:48:22.776Z,70.20
2019-03-17T15:50:50.859Z,71.10
2019-03-17T15:53:18.917Z,68.53
2019-03-17T15:55:47.093Z,71.80
2019-03-17T15:58:15.408Z,69.77
2019-03-17T16:00:43.449Z,74.40
2019-03-17T16:03:11.407Z,70.40
2019-03-17T16:05:39.425Z,70.10
2019-03-17T16:08:07.447Z,75.47
2019-03-17T16:10:35.541Z,71.70
2019-03-17T16:13:03.582Z,68.60
2019-03-17T16:15:31.710Z,68.30
2019-03-17T16:17:59.734Z,77.73
2019-03-17T16:20:27.690Z,72.07
2019-03-17T16:22:55.668Z,69.57
2019-03-17T16:25:23.644Z,75.43
2019-03-17T16:27:51.725Z,69.30
2019-03-17T16:30:20.575Z,69.60
2019-03-17T16:32:48.574Z,68.70
2019-03-17T16:35:16.746Z,67.37
2019-03-17T16:37:45.314Z,70.63
2019-03-17T16:40:14.126Z,69.00
2019-03-17T16:42:42.683Z,71.03
2019-03-17T16:45:11.399Z,71.80
2019-03-17T16:47:39.610Z,70.50
2019-03-17T16:50:08.624Z,70.27
2019-03-17T16:52:36.743Z,70.83
2019-03-17T16:55:05.146Z,69.20
2019-03-17T16:57:33.334Z,69.03
2019-03-17T17:00:01.329Z,70.50
2019-03-17T17:02:29.354Z,72.30
2019-03-17T17:04:57.416Z,71.80
2019-03-17T17:07:25.350Z,70.07
2019-03-17T17:09:53.331Z,71.83
2019-03-17T17:12:21.583Z,69.20
2019-03-17T17:14:49.613Z,70.77
2019-03-17T17:17:17.544Z,76.93
2019-03-17T17:19:45.626Z,73.90
2019-03-17T17:22:13.676Z,68.43
2019-03-17T17:24:41.845Z,72.07
2019-03-17T17:27:09.874Z,68.30
2019-03-17T17:29:37.892Z,68.07
2019-03-17T17:32:05.991Z,71.93
2019-03-17T17:34:34.034Z,69.80
2019-03-17T17:37:02.033Z,70.40
2019-03-17T17:39:30.221Z,71.07
2019-03-17T17:42:08.389Z,68.47
2019-03-17T17:44:27.974Z,72.47
2019-03-17T17:46:58.144Z,72.97
2019-03-17T17:49:25.553Z,69.00
2019-03-17T17:51:53.705Z,68.27
2019-03-17T17:54:21.726Z,74.60
2019-03-17T17:56:49.771Z,67.57
2019-03-17T17:59:17.712Z,69.47
2019-03-17T18:01:46.208Z,71.97
2019-03-17T18:04:14.213Z,68.97
2019-03-17T18:06:42.241Z,72.53
2019-03-17T18:09:10.241Z,71.80
2019-03-17T18:11:38.274Z,70.37
2019-03-17T18:14:06.312Z,69.07
2019-03-17T18:16:34.274Z,69.70
2019-03-17T18:19:02.308Z,71.30
2019-03-17T18:21:30.406Z,71.53
2019-03-17T18:23:58.442Z,70.43
2019-03-17T18:26:26.459Z,73.70
2019-03-17T18:28:54.464Z,69.53
2019-03-17T18:31:22.507Z,71.10
2019-03-17T18:33:50.414Z,71.40
2019-03-17T18:36:18.503Z,70.07
2019-03-17T18:38:46.567Z,71.73
2019-03-17T18:41:14.556Z,70.90
2019-03-17T18:43:42.780Z,69.23
2019-03-17T18:46:10.891Z,70.90
2019-03-17T18:48:39.100Z,70.70
2019-03-17T18:51:07.108Z,68.93
2019-03-17T18:53:35.200Z,72.10
2019-03-17T18:56:03.339Z,70.57
2019-03-17T18:58:31.396Z,71.73
2019-03-17T19:00:59.417Z,71.27
2019-03-17T19:03:27.371Z,69.33
2019-03-17T19:05:55.430Z,75.33
2019-03-17T19:08:23.461Z,69.70
2019-03-17T19:10:51.513Z,69.30
2019-03-17T19:13:19.446Z,71.50
2019-03-17T19:15:47.455Z,71.07
2019-03-17T19:18:15.436Z,71.27
2019-03-17T19:20:43.467Z,72.20
2019-03-17T19:23:11.795Z,70.87
2019-03-17T19:25:39.704Z,69.87
2019-03-17T19:28:08.681Z,71.60
2019-03-17T19:30:36.776Z,70.33
2019-03-17T19:33:04.909Z,69.60
2019-03-17T19:35:33.074Z,72.20
2019-03-17T19:38:01.171Z,69.63
2019-03-17T19:40:29.619Z,69.67
2019-03-17T19:42:59.544Z,73.87
2019-03-17T19:45:27.482Z,69.90
2019-03-17T19:47:55.447Z,70.60
2019-03-17T19:50:23.508Z,74.87
2019-03-17T19:52:51.638Z,71.90
2019-03-17T19:55:19.829Z,73.33
2019-03-17T19:57:47.829Z,72.63
2019-03-17T20:00:16.084Z,70.80
2019-03-17T20:02:47.091Z,71.50
2019-03-17T20:05:14.477Z,69.40
2019-03-17T20:07:42.586Z,71.97
2019-03-17T20:10:11.679Z,69.70
2019-03-17T20:12:39.718Z,73.13
2019-03-17T20:15:07.719Z,72.07
2019-03-17T20:17:35.674Z,69.90
2019-03-17T20:20:04.073Z,70.27
2019-03-17T20:22:32.128Z,70.80
2019-03-17T20:25:00.122Z,70.20
2019-03-17T20:27:30.756Z,70.17
2019-03-17T20:29:57.887Z,71.33
2019-03-17T20:32:26.104Z,74.00
2019-03-17T20:34:54.381Z,69.73
2019-03-17T20:37:22.284Z,73.10
2019-03-17T20:39:50.249Z,75.13
2019-03-17T20:42:18.319Z,73.27
2019-03-17T20:44:46.305Z,73.07
2019-03-17T20:47:14.369Z,71.47
2019-03-17T20:49:42.364Z,70.37
2019-03-17T20:52:10.380Z,71.00
2019-03-17T20:54:38.469Z,74.10
2019-03-17T20:57:06.461Z,73.37
2019-03-17T20:59:34.898Z,72.63
2019-03-17T21:02:02.884Z,72.23
2019-03-17T21:04:30.860Z,71.00
2019-03-17T21:06:58.910Z,70.80
2019-03-17T21:09:26.895Z,72.00
2019-03-17T21:11:54.888Z,71.57
2019-03-17T21:14:22.816Z,71.80
2019-03-17T21:16:50.854Z,70.67
2019-03-17T21:19:18.897Z,74.10
2019-03-17T21:21:47.043Z,74.77
2019-03-17T21:24:15.305Z,72.50
2019-03-17T21:26:43.327Z,76.70
2019-03-17T21:29:11.383Z,73.73
2019-03-17T21:31:39.453Z,72.83
2019-03-17T21:34:07.508Z,71.17
2019-03-17T21:36:35.500Z,74.90
2019-03-17T21:39:04.357Z,77.27
2019-03-17T21:41:32.358Z,71.80
2019-03-17T21:44:00.422Z,72.90
2019-03-17T21:46:28.491Z,71.70
2019-03-17T21:48:56.480Z,72.60
2019-03-17T21:51:24.516Z,72.00
2019-03-17T21:53:52.501Z,78.03
2019-03-17T21:56:20.449Z,71.90
2019-03-17T21:58:48.461Z,74.23
2019-03-17T22:01:16.518Z,72.37
2019-03-17T22:03:44.586Z,69.57
2019-03-17T22:06:12.550Z,73.00
2019-03-17T22:08:40.637Z,71.87
2019-03-17T22:11:08.769Z,75.93
2019-03-17T22:13:37.786Z,73.90
2019-03-17T22:16:05.858Z,73.07
2019-03-17T22:18:33.935Z,70.83
2019-03-17T22:21:01.988Z,77.10
2019-03-17T22:23:30.285Z,73.00
2019-03-17T22:25:58.381Z,71.77
2019-03-17T22:28:26.426Z,71.73
2019-03-17T22:30:54.409Z,77.90
2019-03-17T22:33:22.366Z,75.07
2019-03-17T22:35:50.348Z,72.37
2019-03-17T22:38:18.399Z,72.70
2019-03-17T22:40:46.497Z,72.57
2019-03-17T22:43:14.529Z,73.27
2019-03-17T22:45:42.516Z,72.80
2019-03-17T22:48:10.597Z,78.80
2019-03-17T22:50:38.529Z,72.97
2019-03-17T22:53:06.557Z,71.00
2019-03-17T22:55:34.585Z,71.40
2019-03-17T22:58:02.663Z,74.80
2019-03-17T23:00:39.630Z,73.83
2019-03-17T23:03:07.621Z,72.33
2019-03-17T23:05:35.914Z,73.80
2019-03-17T23:08:04.087Z,74.83
2019-03-17T23:10:32.142Z,75.60
2019-03-17T23:13:00.221Z,73.00
2019-03-17T23:15:28.284Z,74.30
2019-03-17T23:17:56.255Z,74.53
2019-03-17T23:20:24.338Z,77.97
2019-03-17T23:22:52.435Z,71.00
2019-03-17T23:25:20.438Z,71.90
2019-03-17T23:27:48.481Z,73.93
2019-03-17T23:30:16.527Z,75.13
2019-03-17T23:32:44.626Z,95.80
2019-03-17T23:35:12.629Z,94.80
2019-03-17T23:37:40.646Z,78.00
2019-03-17T23:40:09.779Z,74.23
2019-03-17T23:42:37.987Z,72.27
2019-03-17T23:45:06.182Z,69.90
2019-03-17T23:47:34.124Z,69.73
2019-03-17T23:50:02.119Z,70.57
2019-03-17T23:52:30.176Z,67.80
2019-03-17T23:54:58.136Z,69.20
2019-03-17T23:57:26.228Z,66.50
2019-03-17T23:59:54.167Z,66.07
